createdAt,value
2022-10-12T00:00:33.489Z,6.70
2022-10-12T00:01:36.101Z,7.60
2022-10-12T00:02:37.753Z,7.05
2022-10-12T00:03:40.439Z,8.07
2022-10-12T00:04:43.964Z,6.47
2022-10-12T00:06:00.370Z,6.93
2022-10-12T00:07:01.898Z,7.60
2022-10-12T00:08:04.413Z,6.55
2022-10-12T00:09:06.222Z,7.45
2022-10-12T00:10:09.621Z,7.00
2022-10-12T00:11:13.457Z,6.93
2022-10-12T00:12:16.013Z,6.95
2022-10-12T00:13:17.909Z,7.63
2022-10-12T00:14:20.415Z,7.00
2022-10-12T00:15:21.926Z,7.00
2022-10-12T00:16:25.585Z,6.70
2022-10-12T00:17:27.160Z,6.63
2022-10-12T00:18:29.737Z,6.63
2022-10-12T00:19:31.411Z,6.22
2022-10-12T00:20:36.703Z,6.57
2022-10-12T00:21:39.918Z,6.97
2022-10-12T00:22:42.411Z,6.63
2022-10-12T00:23:44.708Z,6.72
2022-10-12T00:24:47.164Z,6.18
2022-10-12T00:25:48.654Z,7.68
2022-10-12T00:26:52.657Z,5.80
2022-10-12T00:27:56.172Z,6.47
2022-10-12T00:29:01.029Z,6.47
2022-10-12T00:30:08.590Z,6.00
2022-10-12T00:31:12.980Z,7.43
2022-10-12T00:32:15.336Z,7.15
2022-10-12T00:33:17.844Z,7.22
2022-10-12T00:34:19.429Z,6.57
2022-10-12T00:35:21.904Z,5.70
2022-10-12T00:44:08.683Z,5.65
2022-10-12T00:46:28.565Z,6.22
2022-10-12T00:47:34.203Z,5.40
2022-10-12T00:48:37.063Z,5.40
2022-10-12T00:49:38.949Z,6.20
2022-10-12T00:50:41.604Z,5.60
2022-10-12T00:51:45.485Z,6.10
2022-10-12T00:52:56.772Z,4.65
2022-10-12T00:54:03.940Z,5.43
2022-10-12T00:55:08.594Z,4.75
2022-10-12T00:56:18.063Z,5.70
2022-10-12T00:57:22.605Z,4.85
2022-10-12T00:58:24.411Z,5.82
2022-10-12T00:59:32.703Z,5.80
2022-10-12T01:00:36.579Z,4.70
2022-10-12T01:01:39.805Z,4.85
2022-10-12T01:02:44.053Z,4.40
2022-10-12T01:03:45.990Z,4.22
2022-10-12T01:04:48.750Z,5.07
2022-10-12T01:05:50.462Z,4.70
2022-10-12T01:06:53.643Z,4.88
2022-10-12T01:07:56.225Z,4.55
2022-10-12T01:08:58.215Z,4.82
2022-10-12T01:10:00.861Z,4.80
2022-10-12T01:11:02.466Z,4.70
2022-10-12T01:12:07.388Z,4.45
2022-10-12T01:13:09.016Z,5.63
2022-10-12T01:14:12.097Z,5.13
2022-10-12T01:15:13.720Z,3.80
2022-10-12T01:16:21.149Z,4.50
2022-10-12T01:17:36.564Z,4.70
2022-10-12T01:18:46.604Z,6.05
2022-10-12T01:20:08.299Z,4.40
2022-10-12T01:21:23.551Z,5.50
2022-10-12T01:22:25.678Z,4.70
2022-10-12T01:24:06.491Z,4.78
2022-10-12T01:25:23.459Z,5.32
2022-10-12T01:31:39.828Z,4.50
2022-10-12T01:32:58.981Z,4.57
2022-10-12T01:34:06.511Z,5.68
2022-10-12T01:35:16.587Z,5.78
2022-10-12T01:46:43.637Z,5.53
2022-10-12T01:47:48.460Z,5.68
2022-10-12T01:48:54.459Z,5.85
2022-10-12T01:49:56.049Z,5.30
2022-10-12T01:51:03.185Z,5.03
2022-10-12T01:52:21.209Z,6.40
2022-10-12T01:53:29.856Z,5.60
2022-10-12T01:54:47.080Z,5.93
2022-10-12T01:55:55.399Z,5.32
2022-10-12T01:57:02.809Z,5.43
2022-10-12T01:58:30.531Z,5.90
2022-10-12T01:59:42.429Z,6.00
2022-10-12T02:16:08.621Z,6.45
2022-10-12T02:17:13.744Z,6.60
2022-10-12T02:18:20.299Z,5.90
2022-10-12T02:19:25.590Z,6.45
2022-10-12T02:20:28.647Z,5.38
2022-10-12T02:21:32.571Z,5.72
2022-10-12T02:22:39.200Z,5.65
2022-10-12T02:23:41.466Z,6.05
2022-10-12T02:24:48.440Z,6.30
2022-10-12T02:25:51.566Z,5.97
2022-10-12T02:26:55.386Z,6.47
2022-10-12T02:28:03.353Z,6.80
2022-10-12T02:29:10.482Z,6.32
2022-10-12T02:30:12.942Z,6.85
2022-10-12T02:31:30.080Z,6.78
2022-10-12T02:32:38.375Z,8.15
2022-10-12T02:33:47.195Z,6.55
2022-10-12T02:34:53.488Z,6.82
2022-10-12T02:36:01.561Z,7.15
2022-10-12T02:37:07.272Z,6.22
2022-10-12T02:38:14.380Z,7.03
2022-10-12T02:39:21.027Z,7.63
2022-10-12T02:40:31.844Z,8.88
2022-10-12T02:41:38.367Z,7.50
2022-10-12T02:43:09.367Z,8.38
2022-10-12T02:44:14.631Z,8.82
2022-10-12T02:45:19.144Z,8.52
2022-10-12T02:46:26.489Z,9.75
2022-10-12T02:47:31.742Z,8.15
2022-10-12T02:48:36.897Z,7.90
2022-10-12T02:49:41.299Z,8.30
2022-10-12T02:50:44.577Z,7.18
2022-10-12T02:51:47.161Z,8.15
2022-10-12T02:52:50.648Z,7.57
2022-10-12T02:53:53.190Z,7.60
2022-10-12T02:54:55.997Z,6.28
2022-10-12T02:56:01.861Z,6.75
2022-10-12T02:57:04.557Z,7.10
2022-10-12T02:58:06.502Z,7.30
2022-10-12T02:59:09.000Z,7.13
2022-10-12T03:00:11.730Z,7.38
2022-10-12T03:01:16.950Z,7.35
2022-10-12T03:02:19.964Z,6.80
2022-10-12T03:03:22.720Z,6.82
2022-10-12T03:04:24.255Z,7.82
2022-10-12T03:05:26.713Z,6.45
2022-10-12T03:06:28.287Z,7.47
2022-10-12T03:07:30.739Z,7.22
2022-10-12T03:08:32.369Z,7.10
2022-10-12T03:09:34.872Z,6.47
2022-10-12T03:10:36.529Z,6.35
2022-10-12T03:11:43.603Z,6.65
2022-10-12T03:12:49.814Z,6.53
2022-10-12T03:13:53.969Z,7.13
2022-10-12T03:14:55.781Z,6.50
2022-10-12T03:16:02.669Z,7.50
2022-10-12T03:17:05.688Z,7.22
2022-10-12T03:18:09.619Z,6.05
2022-10-12T03:19:11.320Z,6.20
2022-10-12T03:20:15.867Z,6.50
2022-10-12T03:21:20.243Z,6.55
2022-10-12T03:22:24.521Z,6.15
2022-10-12T03:23:26.406Z,5.70
2022-10-12T03:24:29.152Z,5.50
2022-10-12T03:25:31.086Z,6.40
2022-10-12T03:26:36.761Z,6.53
2022-10-12T03:27:39.603Z,5.45
2022-10-12T03:28:43.144Z,5.45
2022-10-12T03:29:45.393Z,6.35
2022-10-12T03:46:12.509Z,5.78
2022-10-12T03:47:16.219Z,5.78
2022-10-12T03:48:22.811Z,5.72
2022-10-12T03:49:24.945Z,5.80
2022-10-12T03:50:28.087Z,5.57
2022-10-12T03:51:31.147Z,5.60
2022-10-12T03:52:38.185Z,6.47
2022-10-12T03:53:45.735Z,6.18
2022-10-12T03:54:48.535Z,6.25
2022-10-12T03:55:51.950Z,6.10
2022-10-12T03:57:00.684Z,5.38
2022-10-12T03:58:02.448Z,5.60
2022-10-12T03:59:05.395Z,5.72
2022-10-12T04:00:10.996Z,5.80
2022-10-12T04:11:37.606Z,5.70
2022-10-12T04:12:39.135Z,7.13
2022-10-12T04:13:41.682Z,6.65
2022-10-12T04:14:43.303Z,6.25
2022-10-12T04:15:46.095Z,5.82
2022-10-12T04:16:47.757Z,6.10
2022-10-12T04:17:50.240Z,5.65
2022-10-12T04:18:51.856Z,6.32
2022-10-12T04:19:54.349Z,6.30
2022-10-12T04:20:55.989Z,5.95
2022-10-12T04:21:58.475Z,6.15
2022-10-12T04:23:02.698Z,5.25
2022-10-12T04:24:05.589Z,6.13
2022-10-12T04:25:07.881Z,5.75
2022-10-12T04:26:12.293Z,6.07
2022-10-12T04:27:16.721Z,5.47
2022-10-12T04:28:19.502Z,5.78
2022-10-12T04:29:22.077Z,5.43
2022-10-12T04:30:24.580Z,6.10
2022-10-12T04:31:26.122Z,6.38
2022-10-12T04:32:28.568Z,6.72
2022-10-12T04:33:30.099Z,5.15
2022-10-12T04:34:32.880Z,5.68
2022-10-12T04:35:34.430Z,5.90
2022-10-12T04:36:36.957Z,5.53
2022-10-12T04:37:38.729Z,6.15
2022-10-12T04:38:41.575Z,5.50
2022-10-12T04:39:43.106Z,6.40
2022-10-12T04:40:47.396Z,5.60
2022-10-12T04:41:48.917Z,5.55
2022-10-12T04:42:52.875Z,5.78
2022-10-12T04:43:54.755Z,6.10
2022-10-12T04:44:57.265Z,7.22
2022-10-12T04:46:00.139Z,5.95
2022-10-12T04:47:03.930Z,6.32
2022-10-12T04:48:05.659Z,5.60
2022-10-12T04:49:08.364Z,7.22
2022-10-12T04:50:10.140Z,6.00
2022-10-12T04:51:12.663Z,8.52
2022-10-12T04:52:14.249Z,5.63
2022-10-12T04:53:17.723Z,6.35
2022-10-12T04:54:19.338Z,5.93
2022-10-12T04:55:22.007Z,5.88
2022-10-12T05:15:41.964Z,7.20
2022-10-12T05:16:43.490Z,7.00
2022-10-12T05:17:46.012Z,6.50
2022-10-12T05:18:47.779Z,6.80
2022-10-12T05:19:50.511Z,7.97
2022-10-12T05:20:55.995Z,8.73
2022-10-12T05:21:59.571Z,7.50
2022-10-12T05:23:01.175Z,7.85
2022-10-12T05:24:03.858Z,6.85
2022-10-12T05:25:07.657Z,8.50
2022-10-12T05:26:10.212Z,7.90
2022-10-12T05:27:11.889Z,7.70
2022-10-12T05:28:14.417Z,7.65
2022-10-12T05:29:15.996Z,7.95
2022-10-12T05:30:18.610Z,7.40
2022-10-12T05:31:21.477Z,7.85
2022-10-12T05:32:23.997Z,6.30
2022-10-12T05:33:25.590Z,8.10
2022-10-12T05:34:28.038Z,7.60
2022-10-12T05:35:29.527Z,7.05
2022-10-12T05:36:32.040Z,8.65
2022-10-12T05:37:33.680Z,7.60
2022-10-12T05:38:36.301Z,7.25
2022-10-12T05:39:37.843Z,7.55
2022-10-12T05:40:40.413Z,7.70
2022-10-12T05:41:42.891Z,8.50
2022-10-12T05:42:45.409Z,7.30
2022-10-12T05:43:47.919Z,7.55
2022-10-12T05:44:49.453Z,7.65
2022-10-12T05:51:00.523Z,7.35
2022-10-12T05:52:02.275Z,7.28
2022-10-12T05:53:04.962Z,7.65
2022-10-12T05:54:06.737Z,8.25
2022-10-12T05:55:10.886Z,7.22
2022-10-12T05:56:12.500Z,7.50
2022-10-12T05:57:15.365Z,8.05
2022-10-12T05:58:16.925Z,8.02
2022-10-12T05:59:19.481Z,7.78
2022-10-12T06:00:21.558Z,7.25
2022-10-12T06:01:24.308Z,7.65
2022-10-12T06:02:25.980Z,8.25
2022-10-12T06:03:32.717Z,8.23
2022-10-12T06:04:36.412Z,8.98
2022-10-12T06:05:39.079Z,8.60
2022-10-12T06:06:42.151Z,7.55
2022-10-12T06:07:44.876Z,7.13
2022-10-12T06:08:46.553Z,7.85
2022-10-12T06:09:49.107Z,8.43
2022-10-12T06:10:51.900Z,7.30
2022-10-12T06:11:54.914Z,8.23
2022-10-12T06:12:56.540Z,7.70
2022-10-12T06:13:59.145Z,7.40
2022-10-12T06:15:01.314Z,7.63
2022-10-12T06:16:04.409Z,7.05
2022-10-12T06:17:06.245Z,8.20
2022-10-12T06:18:08.880Z,7.05
2022-10-12T06:19:11.115Z,7.00
2022-10-12T06:20:13.815Z,7.13
2022-10-12T06:26:25.790Z,7.03
2022-10-12T06:27:27.348Z,7.50
2022-10-12T06:28:29.831Z,7.53
2022-10-12T06:29:31.417Z,6.55
2022-10-12T06:30:36.673Z,5.90
2022-10-12T06:31:39.868Z,5.90
2022-10-12T06:32:41.487Z,6.68
2022-10-12T06:33:44.110Z,5.68
2022-10-12T06:34:57.832Z,6.68
2022-10-12T06:36:00.348Z,6.80
2022-10-12T06:37:02.823Z,5.85
2022-10-12T08:23:45.045Z,4.72
2022-10-12T08:25:56.804Z,5.38
2022-10-12T08:27:01.317Z,4.00
2022-10-12T08:28:04.436Z,4.68
2022-10-12T08:29:08.133Z,4.50
2022-10-12T08:30:11.677Z,4.65
2022-10-12T08:31:16.343Z,4.57
2022-10-12T08:32:18.065Z,4.68
2022-10-12T08:33:21.500Z,4.43
2022-10-12T08:34:25.172Z,4.53
2022-10-12T08:35:26.793Z,5.50
2022-10-12T08:36:29.419Z,3.97
2022-10-12T08:37:30.993Z,4.65
2022-10-12T08:38:33.640Z,3.90
2022-10-12T08:39:37.788Z,4.43
2022-10-12T08:40:47.691Z,4.30
2022-10-12T08:41:59.956Z,12.45
2022-10-12T08:43:11.954Z,4.75
2022-10-12T08:44:48.552Z,3.88
2022-10-12T08:45:54.323Z,4.40
2022-10-12T08:46:58.158Z,3.85
2022-10-12T08:48:08.117Z,4.30
2022-10-12T08:49:15.638Z,5.15
2022-10-12T08:50:27.286Z,4.50
2022-10-12T08:51:31.738Z,4.45
2022-10-12T08:52:40.349Z,5.43
2022-10-12T08:53:51.288Z,4.80
2022-10-12T08:55:00.220Z,5.55
2022-10-12T08:56:02.001Z,4.65
2022-10-12T08:57:04.892Z,4.45
2022-10-12T08:58:15.740Z,4.80
2022-10-12T08:59:20.047Z,4.25
2022-10-12T09:00:21.933Z,5.18
2022-10-12T09:01:30.410Z,4.90
2022-10-12T09:02:46.136Z,4.53
2022-10-12T09:04:04.167Z,5.78
2022-10-12T09:05:10.000Z,4.82
2022-10-12T09:06:19.264Z,5.00
2022-10-12T09:07:26.600Z,4.55
2022-10-12T09:08:37.869Z,5.20
2022-10-12T09:09:53.632Z,5.22
2022-10-12T09:11:12.902Z,5.13
2022-10-12T09:12:29.066Z,5.22
2022-10-12T09:13:43.569Z,5.85
2022-10-12T09:14:47.104Z,5.93
2022-10-12T09:15:54.360Z,5.05
2022-10-12T09:16:57.038Z,5.53
2022-10-12T09:18:01.903Z,5.38
2022-10-12T09:19:09.162Z,5.80
2022-10-12T09:20:19.523Z,5.53
2022-10-12T09:21:23.108Z,5.38
2022-10-12T09:22:25.249Z,5.25
2022-10-12T09:23:32.872Z,5.60
2022-10-12T09:24:37.099Z,5.57
2022-10-12T09:25:39.447Z,5.40
2022-10-12T09:26:45.669Z,5.43
2022-10-12T09:27:47.411Z,5.70
2022-10-12T09:28:54.442Z,5.47
2022-10-12T09:30:02.208Z,5.20
2022-10-12T09:31:19.697Z,5.70
2022-10-12T09:32:45.764Z,6.25
2022-10-12T09:33:52.779Z,6.72
2022-10-12T09:34:57.218Z,5.85
2022-10-12T09:36:00.091Z,5.32
2022-10-12T09:37:02.779Z,6.03
2022-10-12T09:38:07.039Z,6.32
2022-10-12T09:39:15.655Z,7.10
2022-10-12T09:40:22.607Z,5.68
2022-10-12T09:41:27.952Z,5.97
2022-10-12T09:42:32.899Z,5.50
2022-10-12T09:43:35.476Z,6.00
2022-10-12T09:44:40.260Z,5.63
2022-10-12T09:45:43.648Z,5.85
2022-10-12T09:46:49.593Z,7.38
2022-10-12T09:48:20.830Z,7.15
2022-10-12T09:49:22.677Z,5.65
2022-10-12T09:50:41.162Z,5.75
2022-10-12T09:51:44.090Z,5.78
2022-10-12T09:52:48.941Z,7.00
2022-10-12T09:53:56.751Z,7.60
2022-10-12T09:55:04.862Z,6.38
2022-10-12T09:56:23.208Z,5.72
2022-10-12T09:57:28.283Z,5.60
2022-10-12T09:58:40.901Z,6.47
2022-10-12T09:59:45.914Z,5.70
2022-10-12T10:01:13.431Z,5.80
2022-10-12T10:02:18.458Z,6.95
2022-10-12T10:03:29.162Z,5.18
2022-10-12T10:04:34.238Z,5.20
2022-10-12T10:05:39.073Z,5.65
2022-10-12T10:06:43.891Z,5.82
2022-10-12T10:07:45.430Z,6.50
2022-10-12T10:08:48.405Z,6.45
2022-10-12T10:10:10.341Z,5.90
2022-10-12T10:11:16.745Z,5.55
2022-10-12T10:12:24.978Z,4.65
2022-10-12T10:13:32.875Z,5.55
2022-10-12T10:14:35.891Z,5.40
2022-10-12T10:15:39.639Z,5.78
2022-10-12T10:16:49.864Z,5.82
2022-10-12T10:17:54.624Z,6.35
2022-10-12T10:18:59.468Z,5.20
2022-10-12T10:20:05.788Z,5.70
2022-10-12T10:21:10.159Z,5.10
2022-10-12T10:22:12.692Z,5.88
2022-10-12T10:23:25.730Z,5.90
2022-10-12T10:24:30.194Z,5.00
2022-10-12T10:25:34.081Z,5.22
2022-10-12T10:26:53.026Z,6.35
2022-10-12T10:28:21.432Z,5.05
2022-10-12T10:29:40.520Z,5.68
2022-10-12T10:30:42.564Z,5.80
2022-10-12T10:31:48.054Z,6.55
2022-10-12T10:33:06.375Z,5.70
2022-10-12T10:34:19.900Z,5.72
2022-10-12T10:35:22.354Z,5.65
2022-10-12T10:36:28.225Z,5.88
2022-10-12T10:37:31.292Z,5.90
2022-10-12T10:38:53.328Z,5.65
2022-10-12T10:39:58.312Z,5.35
2022-10-12T10:41:07.128Z,5.75
2022-10-12T10:42:10.261Z,6.25
2022-10-12T10:43:21.357Z,5.22
2022-10-12T10:44:34.379Z,5.32
2022-10-12T10:45:48.802Z,5.10
2022-10-12T10:46:52.719Z,5.25
2022-10-12T10:48:01.424Z,5.85
2022-10-12T10:49:06.339Z,5.78
2022-10-12T10:50:26.832Z,5.95
2022-10-12T10:51:47.001Z,5.25
2022-10-12T10:52:56.677Z,5.63
2022-10-12T10:54:13.658Z,4.97
2022-10-12T10:55:20.298Z,5.55
2022-10-12T10:56:25.733Z,4.93
2022-10-12T10:57:28.797Z,4.95
2022-10-12T10:58:35.192Z,4.95
2022-10-12T10:59:46.413Z,5.43
2022-10-12T11:00:51.829Z,5.72
2022-10-12T11:01:57.395Z,5.10
2022-10-12T11:03:06.728Z,4.72
2022-10-12T11:04:14.203Z,4.95
2022-10-12T11:05:20.522Z,5.43
2022-10-12T11:06:33.181Z,4.00
2022-10-12T11:07:40.191Z,4.70
2022-10-12T11:08:44.327Z,6.75
2022-10-12T11:09:51.805Z,4.90
2022-10-12T11:10:59.084Z,4.32
2022-10-12T11:12:05.523Z,3.90
2022-10-12T11:13:16.721Z,4.35
2022-10-12T11:14:22.517Z,4.72
2022-10-12T11:15:30.113Z,4.80
2022-10-12T11:16:38.435Z,4.22
2022-10-12T11:17:46.203Z,4.50
2022-10-12T11:18:53.671Z,5.40
2022-10-12T11:20:03.897Z,4.70
2022-10-12T11:21:13.603Z,4.97
2022-10-12T11:22:19.076Z,4.88
2022-10-12T11:23:31.648Z,5.68
2022-10-12T11:24:37.797Z,4.40
2022-10-12T11:25:48.987Z,4.45
2022-10-12T11:26:57.810Z,5.82
2022-10-12T11:27:59.486Z,4.93
2022-10-12T11:29:02.390Z,4.93
2022-10-12T11:30:12.514Z,5.60
2022-10-12T11:31:21.055Z,4.80
2022-10-12T11:32:30.153Z,4.82
2022-10-12T11:33:38.336Z,4.75
2022-10-12T11:34:53.638Z,4.70
2022-10-12T11:36:00.423Z,5.68
2022-10-12T11:37:19.321Z,5.18
2022-10-12T11:38:29.537Z,5.20
2022-10-12T11:39:35.860Z,4.22
2022-10-12T11:42:27.609Z,4.88
2022-10-12T11:43:35.109Z,5.10
2022-10-12T11:44:42.302Z,4.82
2022-10-12T11:45:49.402Z,4.40
2022-10-12T11:46:58.174Z,5.07
2022-10-12T11:48:09.307Z,4.90
2022-10-12T11:49:17.969Z,5.05
2022-10-12T11:50:28.931Z,4.75
2022-10-12T11:51:31.495Z,4.70
2022-10-12T11:52:39.213Z,4.38
2022-10-12T11:53:49.522Z,6.10
2022-10-12T11:55:00.607Z,5.00
2022-10-12T11:56:09.483Z,3.95
2022-10-12T11:57:16.004Z,5.40
2022-10-12T11:58:36.484Z,4.75
2022-10-12T11:59:49.177Z,5.03
2022-10-12T12:01:05.385Z,4.93
2022-10-12T12:02:19.127Z,4.90
2022-10-12T12:03:30.536Z,5.50
2022-10-12T12:04:43.877Z,5.78
2022-10-12T12:05:46.924Z,4.60
2022-10-12T12:06:52.315Z,4.10
2022-10-12T12:07:56.632Z,4.95
2022-10-12T12:08:59.031Z,5.70
2022-10-12T12:10:01.568Z,4.90
2022-10-12T12:11:07.829Z,6.13
2022-10-12T12:12:19.375Z,5.72
2022-10-12T12:13:26.883Z,5.15
2022-10-12T12:14:50.269Z,5.10
2022-10-12T12:16:32.859Z,4.40
2022-10-12T12:17:36.627Z,4.97
2022-10-12T12:19:11.695Z,5.18
2022-10-12T12:20:52.948Z,5.80
2022-10-12T12:22:34.088Z,4.82
2022-10-12T12:23:39.562Z,4.57
2022-10-12T12:24:53.941Z,5.20
2022-10-12T12:26:11.834Z,4.78
2022-10-12T12:27:22.618Z,5.30
2022-10-12T12:28:25.877Z,5.03
2022-10-12T12:29:29.717Z,5.60
2022-10-12T12:30:38.429Z,5.53
2022-10-12T12:31:41.078Z,6.00
2022-10-12T12:32:48.040Z,4.80
2022-10-12T12:34:01.764Z,5.10
2022-10-12T12:35:04.096Z,5.47
2022-10-12T12:36:09.298Z,4.20
2022-10-12T12:37:12.674Z,5.43
2022-10-12T12:38:25.466Z,5.10
2022-10-12T12:39:30.412Z,5.07
2022-10-12T12:40:33.739Z,6.57
2022-10-12T12:41:54.257Z,5.30
2022-10-12T12:43:21.830Z,4.95
2022-10-12T12:44:45.580Z,6.00
2022-10-12T12:45:55.974Z,4.35
2022-10-12T12:47:44.054Z,4.53
2022-10-12T12:49:01.268Z,4.95
2022-10-12T12:50:32.623Z,4.47
2022-10-12T12:51:43.358Z,4.40
2022-10-12T12:53:52.355Z,4.63
2022-10-12T12:55:22.953Z,4.90
2022-10-12T12:56:35.647Z,4.63
2022-10-12T12:58:01.785Z,4.20
2022-10-12T12:59:32.318Z,7.68
2022-10-12T13:02:13.827Z,4.82
2022-10-12T13:03:35.487Z,5.63
2022-10-12T13:05:04.001Z,4.70
2022-10-12T13:06:49.030Z,4.80
2022-10-12T13:08:09.073Z,4.55
2022-10-12T13:09:33.660Z,4.88
2022-10-12T13:10:50.534Z,5.07
2022-10-12T13:12:08.295Z,4.32
2022-10-12T13:13:26.021Z,4.60
2022-10-12T13:14:44.417Z,4.53
2022-10-12T13:16:02.423Z,5.00
2022-10-12T13:17:35.650Z,4.63
2022-10-12T13:18:58.087Z,4.00
2022-10-12T13:20:03.362Z,4.30
2022-10-12T13:21:06.969Z,5.00
2022-10-12T13:22:15.937Z,4.55
2022-10-12T13:23:22.632Z,4.95
2022-10-12T13:24:31.360Z,4.47
2022-10-12T13:25:37.112Z,4.70
2022-10-12T13:26:41.866Z,4.28
2022-10-12T13:27:47.138Z,4.30
2022-10-12T13:28:50.793Z,5.35
2022-10-12T13:29:58.845Z,5.72
2022-10-12T13:31:03.292Z,5.28
2022-10-12T13:32:15.183Z,5.18
2022-10-12T13:33:23.058Z,5.32
2022-10-12T13:34:30.088Z,4.70
2022-10-12T13:35:34.617Z,4.85
2022-10-12T13:36:46.969Z,5.28
2022-10-12T13:38:01.275Z,5.15
2022-10-12T13:39:09.992Z,5.03
2022-10-12T13:40:31.993Z,4.70
2022-10-12T13:41:36.028Z,6.30
2022-10-12T13:42:38.578Z,4.45
2022-10-12T13:43:44.539Z,4.90
2022-10-12T13:44:48.682Z,4.22
2022-10-12T13:45:50.323Z,4.80
2022-10-12T13:46:56.427Z,5.50
2022-10-12T13:48:03.945Z,4.60
2022-10-12T13:49:14.217Z,5.13
2022-10-12T13:50:19.428Z,4.28
2022-10-12T13:51:23.989Z,5.25
2022-10-12T13:52:32.101Z,5.40
2022-10-12T13:53:36.284Z,4.82
2022-10-12T13:54:40.954Z,4.72
2022-10-12T13:55:53.798Z,5.53
2022-10-12T13:56:59.983Z,5.00
2022-10-12T13:58:01.578Z,4.38
2022-10-12T13:59:07.107Z,4.68
2022-10-12T14:00:21.113Z,4.90
2022-10-12T14:01:22.802Z,5.15
2022-10-12T14:02:27.989Z,5.30
2022-10-12T14:03:36.311Z,4.90
2022-10-12T14:04:38.851Z,5.25
2022-10-12T14:05:46.033Z,5.35
2022-10-12T14:06:55.997Z,5.60
2022-10-12T14:08:03.257Z,5.13
2022-10-12T14:09:09.710Z,5.03
2022-10-12T14:10:21.983Z,4.72
2022-10-12T14:11:26.341Z,5.03
2022-10-12T14:12:32.172Z,4.53
2022-10-12T14:13:35.345Z,4.63
2022-10-12T14:14:39.937Z,5.45
2022-10-12T14:15:42.273Z,6.47
2022-10-12T14:16:44.839Z,5.40
2022-10-12T14:17:50.702Z,4.78
2022-10-12T14:18:53.201Z,4.20
2022-10-12T14:19:59.806Z,4.95
2022-10-12T14:21:11.231Z,5.07
2022-10-12T14:22:19.787Z,5.07
2022-10-12T14:23:24.283Z,5.20
2022-10-12T14:24:27.030Z,5.18
2022-10-12T14:25:31.560Z,4.40
2022-10-12T14:26:39.621Z,5.40
2022-10-12T14:27:42.488Z,4.67
2022-10-12T14:28:44.030Z,5.50
2022-10-12T14:29:47.932Z,5.03
2022-10-12T14:30:52.160Z,5.83
2022-10-12T14:31:57.551Z,4.60
2022-10-12T14:33:12.555Z,5.03
2022-10-12T14:34:33.205Z,4.60
2022-10-12T14:35:38.386Z,5.20
2022-10-12T14:36:40.070Z,5.60
2022-10-12T14:37:42.633Z,5.30
2022-10-12T14:38:46.952Z,5.15
2022-10-12T14:39:49.821Z,5.82
2022-10-12T14:40:52.393Z,4.70
2022-10-12T14:42:03.025Z,5.40
2022-10-12T14:43:09.346Z,5.55
2022-10-12T14:44:13.217Z,5.33
2022-10-12T14:45:24.447Z,5.10
2022-10-12T14:46:26.040Z,5.22
2022-10-12T14:47:32.231Z,5.00
2022-10-12T14:48:34.885Z,5.68
2022-10-12T14:49:40.154Z,5.18
2022-10-12T14:50:44.811Z,5.70
2022-10-12T14:51:47.268Z,4.85
2022-10-12T14:52:52.507Z,14.23
2022-10-12T14:54:00.418Z,7.57
2022-10-12T14:55:02.999Z,6.90
2022-10-12T14:56:05.976Z,6.32
2022-10-12T14:57:14.274Z,5.40
2022-10-12T14:58:18.249Z,5.38
2022-10-12T14:59:19.923Z,5.15
2022-10-12T15:00:24.480Z,5.80
2022-10-12T15:01:27.093Z,4.60
2022-10-12T15:02:30.555Z,5.20
2022-10-12T15:03:33.069Z,5.00
2022-10-12T15:04:34.650Z,5.57
2022-10-12T15:05:37.287Z,4.90
2022-10-12T15:06:39.069Z,6.03
2022-10-12T15:07:42.099Z,5.10
2022-10-12T15:08:44.100Z,5.45
2022-10-12T15:09:47.192Z,5.35
2022-10-12T15:10:52.117Z,5.20
2022-10-12T15:11:53.650Z,5.10
2022-10-12T15:12:57.615Z,5.03
2022-10-12T15:13:59.138Z,4.20
2022-10-12T15:15:09.133Z,5.33
2022-10-12T15:16:20.405Z,5.50
2022-10-12T15:17:22.000Z,4.60
2022-10-12T15:18:24.549Z,5.60
2022-10-12T15:19:26.074Z,4.70
2022-10-12T15:20:30.509Z,5.20
2022-10-12T15:21:32.056Z,4.65
2022-10-12T15:22:34.633Z,5.97
2022-10-12T15:23:36.254Z,5.55
2022-10-12T15:24:39.184Z,4.40
2022-10-12T15:25:46.104Z,5.03
2022-10-12T15:26:47.675Z,6.45
2022-10-12T15:27:50.202Z,5.30
2022-10-12T15:28:54.267Z,5.10
2022-10-12T15:29:55.948Z,5.40
2022-10-12T15:32:22.208Z,5.38
2022-10-12T15:33:24.907Z,5.95
2022-10-12T15:34:27.105Z,5.93
2022-10-12T15:35:33.889Z,4.88
2022-10-12T15:36:35.438Z,6.15
2022-10-12T15:37:37.909Z,5.50
2022-10-12T15:38:39.744Z,5.53
2022-10-12T15:39:42.798Z,5.78
2022-10-12T15:40:46.980Z,5.90
2022-10-12T15:41:49.485Z,5.80
2022-10-12T15:42:51.047Z,5.13
2022-10-12T15:43:54.913Z,5.20
2022-10-12T15:44:56.403Z,5.15
2022-10-12T15:45:59.898Z,5.00
2022-10-12T15:47:01.924Z,6.18
2022-10-12T15:48:05.963Z,6.32
2022-10-12T15:49:07.981Z,6.10
2022-10-12T15:50:10.548Z,7.50
2022-10-12T15:51:20.499Z,5.90
2022-10-12T15:52:22.035Z,5.20
2022-10-12T15:53:26.340Z,6.05
2022-10-12T15:54:28.043Z,5.05
2022-10-12T15:55:31.548Z,5.68
2022-10-12T15:56:34.287Z,5.80
2022-10-12T15:57:35.938Z,5.57
2022-10-12T15:58:38.519Z,4.53
2022-10-12T15:59:41.400Z,5.43
2022-10-12T16:00:44.208Z,5.10
2022-10-12T16:01:46.801Z,5.40
2022-10-12T16:02:48.705Z,5.10
2022-10-12T16:03:51.951Z,5.22
2022-10-12T16:04:53.481Z,5.17
2022-10-12T16:05:56.009Z,5.45
2022-10-12T16:07:01.113Z,5.90
2022-10-12T16:08:05.246Z,5.60
2022-10-12T16:09:07.164Z,5.70
2022-10-12T16:10:13.867Z,6.05
2022-10-12T16:11:17.310Z,5.97
2022-10-12T16:12:19.898Z,5.95
2022-10-12T16:13:21.514Z,6.50
2022-10-12T16:14:24.362Z,6.70
2022-10-12T16:15:29.475Z,5.25
2022-10-12T16:16:32.194Z,6.10
2022-10-12T16:17:33.735Z,6.63
2022-10-12T16:18:36.264Z,6.80
2022-10-12T16:19:37.978Z,5.95
2022-10-12T16:20:41.819Z,5.60
2022-10-12T16:21:43.432Z,5.38
2022-10-12T16:22:46.532Z,5.20
2022-10-12T16:23:48.099Z,4.95
2022-10-12T16:24:50.633Z,5.60
2022-10-12T16:25:53.823Z,5.20
2022-10-12T16:26:55.413Z,5.85
2022-10-12T16:28:01.276Z,5.80
2022-10-12T16:29:03.932Z,5.93
2022-10-12T16:30:09.027Z,6.03
2022-10-12T16:31:15.261Z,6.28
2022-10-12T16:32:17.761Z,5.85
2022-10-12T16:33:20.486Z,6.43
2022-10-12T16:34:23.011Z,6.70
2022-10-12T16:35:25.661Z,8.40
2022-10-12T16:36:28.189Z,5.88
2022-10-12T16:37:30.189Z,6.40
2022-10-12T16:38:32.813Z,6.60
2022-10-12T16:39:34.344Z,5.68
2022-10-12T16:40:39.019Z,6.13
2022-10-12T16:41:40.610Z,6.13
2022-10-12T16:42:43.184Z,6.13
2022-10-12T16:43:44.833Z,5.68
2022-10-12T16:44:47.349Z,6.65
2022-10-12T16:45:55.410Z,5.90
2022-10-12T16:46:59.712Z,5.72
2022-10-12T16:48:02.486Z,5.60
2022-10-12T16:49:04.388Z,6.18
2022-10-12T16:50:07.787Z,6.78
2022-10-12T16:51:11.067Z,7.32
2022-10-12T16:52:13.803Z,6.57
2022-10-12T16:53:15.506Z,6.78
2022-10-12T16:54:20.105Z,5.75
2022-10-12T16:55:22.778Z,7.65
2022-10-12T16:56:24.434Z,6.30
2022-10-12T16:57:26.955Z,6.38
2022-10-12T16:58:28.576Z,6.72
2022-10-12T16:59:31.340Z,6.40
2022-10-12T17:00:33.720Z,7.53
2022-10-12T17:01:36.317Z,6.53
2022-10-12T17:02:39.226Z,6.18
2022-10-12T17:03:41.938Z,6.00
2022-10-12T17:04:43.682Z,5.93
2022-10-12T17:05:46.213Z,5.90
2022-10-12T17:06:48.335Z,5.88
2022-10-12T17:07:50.825Z,6.38
2022-10-12T17:08:53.283Z,6.43
2022-10-12T17:09:56.206Z,5.82
2022-10-12T17:10:58.211Z,6.80
2022-10-12T17:12:00.909Z,5.97
2022-10-12T17:13:02.463Z,6.85
2022-10-12T17:14:05.796Z,6.55
2022-10-12T17:15:09.032Z,7.10
2022-10-12T17:16:34.447Z,6.32
2022-10-12T17:17:36.943Z,6.38
2022-10-12T17:18:39.848Z,7.13
2022-10-12T17:19:42.425Z,6.80
2022-10-12T17:20:43.979Z,8.20
2022-10-12T17:21:47.521Z,7.57
2022-10-12T17:22:50.030Z,7.45
2022-10-12T17:23:51.570Z,7.05
2022-10-12T17:24:54.106Z,6.55
2022-10-12T17:25:59.149Z,7.22
2022-10-12T17:27:02.706Z,7.63
2022-10-12T17:28:04.493Z,7.32
2022-10-12T17:29:07.989Z,6.57
2022-10-12T17:30:11.458Z,8.25
2022-10-12T17:31:13.818Z,7.60
2022-10-12T17:32:16.729Z,7.07
2022-10-12T17:33:18.405Z,6.82
2022-10-12T17:34:24.255Z,7.07
2022-10-12T17:35:26.862Z,6.85
2022-10-12T17:36:28.669Z,6.95
2022-10-12T17:37:31.377Z,8.35
2022-10-12T17:38:33.813Z,6.68
2022-10-12T17:39:40.907Z,6.82
2022-10-12T17:40:42.775Z,7.25
2022-10-12T17:41:45.467Z,7.00
2022-10-12T17:42:48.928Z,7.50
2022-10-12T17:43:51.459Z,7.60
2022-10-12T17:44:53.975Z,8.35
2022-10-12T17:45:55.621Z,7.50
2022-10-12T17:47:01.037Z,7.88
2022-10-12T17:48:02.598Z,7.78
2022-10-12T17:49:05.839Z,7.95
2022-10-12T17:50:10.753Z,7.95
2022-10-12T17:51:13.501Z,7.05
2022-10-12T17:52:16.370Z,7.60
2022-10-12T17:53:18.303Z,7.43
2022-10-12T17:54:22.153Z,7.10
2022-10-12T17:55:43.767Z,7.28
2022-10-12T17:56:49.954Z,8.77
2022-10-12T17:57:52.249Z,7.13
2022-10-12T17:58:56.187Z,7.53
2022-10-12T17:59:57.819Z,7.57
2022-10-12T18:01:05.117Z,7.25
2022-10-12T18:02:09.640Z,7.72
2022-10-12T18:03:12.468Z,7.85
2022-10-12T18:04:14.139Z,7.85
2022-10-12T18:05:18.557Z,7.50
2022-10-12T18:06:21.157Z,6.95
2022-10-12T18:07:23.671Z,7.90
2022-10-12T18:08:25.318Z,7.85